createdAt,value
2023-02-06T00:01:10.310Z,85.68
2023-02-06T00:05:08.244Z,85.7
2023-02-06T00:10:08.482Z,85.68
2023-02-06T00:15:08.394Z,85.69
2023-02-06T00:20:08.313Z,85.7
2023-02-06T00:25:08.274Z,85.69
2023-02-06T00:30:08.203Z,85.69
2023-02-06T00:35:08.121Z,85.69
2023-02-06T00:40:08.049Z,85.67
2023-02-06T00:45:07.966Z,85.67
2023-02-06T00:50:07.910Z,85.69
2023-02-06T00:55:08.849Z,85.68
2023-02-06T01:00:08.725Z,85.67
2023-02-06T01:05:08.659Z,85.65
2023-02-06T01:10:08.606Z,85.65
2023-02-06T01:15:08.509Z,85.63
2023-02-06T01:20:08.444Z,85.64
2023-02-06T01:25:08.400Z,85.65
2023-02-06T01:30:08.413Z,85.64
2023-02-06T01:35:08.351Z,85.65
2023-02-06T01:40:08.310Z,85.63
2023-02-06T01:45:08.281Z,85.62
2023-02-06T01:50:08.211Z,85.63
2023-02-06T01:55:08.184Z,85.62
2023-02-06T02:00:08.104Z,85.62
2023-02-06T02:05:08.006Z,85.62
2023-02-06T02:10:07.934Z,85.61
2023-02-06T02:15:07.897Z,85.61
2023-02-06T02:20:08.831Z,85.62
2023-02-06T02:25:08.778Z,85.62
2023-02-06T02:30:18.793Z,85.61
2023-02-06T02:35:08.775Z,85.62
2023-02-06T02:40:08.773Z,85.62
2023-02-06T02:45:08.712Z,85.61
2023-02-06T02:50:08.650Z,85.62
2023-02-06T02:55:08.702Z,85.61
2023-02-06T03:00:08.722Z,85.61
2023-02-06T03:05:08.669Z,85.6
2023-02-06T03:10:08.614Z,85.59
2023-02-06T03:15:08.599Z,85.6
2023-02-06T03:20:08.600Z,85.61
2023-02-06T03:25:08.587Z,85.59
2023-02-06T03:30:08.531Z,85.6
2023-02-06T03:35:08.517Z,85.63
2023-02-06T03:40:08.449Z,85.63
2023-02-06T03:45:17.042Z,85.63
2023-02-06T03:50:08.128Z,85.63
2023-02-06T03:55:13.165Z,85.66
2023-02-06T04:00:08.088Z,85.64
2023-02-06T04:05:08.007Z,85.67
2023-02-06T04:10:07.941Z,85.66
2023-02-06T04:15:07.860Z,85.69
2023-02-06T04:20:08.856Z,85.7
2023-02-06T04:25:08.834Z,85.68
2023-02-06T04:30:08.888Z,85.69
2023-02-06T04:35:08.830Z,85.69
2023-02-06T04:40:08.764Z,85.7
2023-02-06T04:45:08.724Z,85.71
2023-02-06T04:50:08.626Z,85.71
2023-02-06T04:55:08.533Z,85.71
2023-02-06T05:00:08.525Z,85.72
2023-02-06T05:05:02.604Z,85.71
2023-02-06T05:10:03.102Z,85.71
2023-02-06T05:15:02.130Z,85.71
2023-02-06T05:20:02.168Z,85.7
2023-02-06T05:25:02.232Z,85.72
2023-02-06T05:30:02.371Z,85.7
2023-02-06T05:35:02.480Z,85.71
2023-02-06T05:40:02.793Z,85.7
2023-02-06T05:45:06.434Z,85.7
2023-02-06T05:50:02.506Z,85.71
2023-02-06T05:55:02.647Z,85.71
2023-02-06T06:00:02.752Z,85.73
2023-02-06T06:05:03.981Z,85.75
2023-02-06T06:10:02.152Z,85.73
2023-02-06T06:15:02.250Z,85.72
2023-02-06T06:20:02.319Z,85.7
2023-02-06T06:25:02.434Z,85.71
2023-02-06T06:30:02.471Z,85.71
2023-02-06T06:35:03.019Z,85.72
2023-02-06T06:40:02.277Z,85.72
2023-02-06T06:45:02.561Z,85.73
2023-02-06T06:50:02.697Z,85.73
2023-02-06T06:55:03.398Z,85.75
2023-02-06T07:00:03.165Z,85.76
2023-02-06T07:05:02.466Z,85.75
2023-02-06T07:10:03.591Z,85.75
2023-02-06T07:15:03.288Z,85.74
2023-02-06T07:20:02.664Z,85.74
2023-02-06T07:25:06.161Z,85.74
2023-02-06T07:30:06.478Z,85.75
2023-02-06T07:35:02.773Z,85.76
2023-02-06T07:40:04.481Z,85.75
2023-02-06T07:45:03.107Z,85.73
2023-02-06T07:50:03.363Z,85.71
2023-02-06T07:55:04.334Z,85.73
2023-02-06T08:00:02.570Z,85.71
2023-02-06T08:05:05.158Z,85.7
2023-02-06T08:10:03.269Z,85.7
2023-02-06T08:15:04.419Z,85.7
2023-02-06T08:20:03.509Z,85.7
2023-02-06T08:25:02.895Z,85.68
2023-02-06T08:30:06.244Z,85.67
2023-02-06T08:35:03.117Z,85.68
2023-02-06T08:40:02.205Z,85.69
2023-02-06T08:45:03.799Z,85.7
2023-02-06T08:50:03.888Z,85.67
2023-02-06T08:55:03.821Z,85.69
2023-02-06T09:00:03.693Z,85.67
2023-02-06T09:05:05.504Z,85.66
2023-02-06T09:10:02.968Z,85.67
2023-02-06T09:15:03.656Z,85.65
2023-02-06T09:20:03.242Z,85.64
2023-02-06T09:25:03.386Z,85.62
2023-02-06T09:30:02.521Z,85.62
2023-02-06T09:35:02.690Z,85.6
2023-02-06T09:40:02.812Z,85.61
2023-02-06T09:45:12.046Z,85.58
2023-02-06T09:50:02.372Z,85.55
2023-02-06T09:55:06.855Z,85.56
2023-02-06T10:00:03.049Z,85.53
2023-02-06T10:05:02.617Z,85.52
2023-02-06T10:10:03.518Z,85.48
2023-02-06T10:15:03.618Z,85.48
2023-02-06T10:20:15.003Z,85.46
2023-02-06T10:25:02.495Z,85.42
2023-02-06T10:30:10.661Z,85.39
2023-02-06T10:35:03.937Z,85.39
2023-02-06T10:40:03.220Z,85.39
2023-02-06T10:45:17.512Z,85.38
2023-02-06T10:50:13.382Z,85.36
2023-02-06T10:55:02.484Z,85.37
2023-02-06T11:00:03.107Z,85.36
2023-02-06T11:05:02.401Z,85.36
2023-02-06T11:10:02.920Z,85.35
2023-02-06T11:15:03.360Z,85.35
2023-02-06T11:20:03.647Z,85.34
2023-02-06T11:25:03.877Z,85.31
2023-02-06T11:30:04.488Z,85.29
2023-02-06T11:35:03.134Z,85.26
2023-02-06T11:40:02.252Z,85.24
2023-02-06T11:45:02.546Z,85.2
2023-02-06T11:50:02.784Z,85.18
2023-02-06T11:55:03.135Z,85.17
2023-02-06T12:00:03.407Z,85.17
2023-02-06T12:05:03.375Z,85.16
2023-02-06T12:10:03.674Z,85.14
2023-02-06T12:15:36.107Z,85.15
2023-02-06T12:20:03.088Z,85.16
2023-02-06T12:25:03.393Z,85.17
2023-02-06T12:30:02.465Z,85.16
2023-02-06T12:35:03.804Z,85.13
2023-02-06T12:40:03.720Z,85.13
2023-02-06T12:45:02.763Z,85.12
2023-02-06T12:50:03.778Z,85.13
2023-02-06T12:55:03.367Z,85.11
2023-02-06T13:00:03.552Z,85.12
2023-02-06T13:05:02.667Z,85.13
2023-02-06T13:10:02.801Z,85.13
2023-02-06T13:15:04.060Z,85.14
2023-02-06T13:20:02.478Z,85.14
2023-02-06T13:25:02.838Z,85.17
2023-02-06T13:30:03.991Z,85.17
2023-02-06T13:35:02.295Z,85.18
2023-02-06T13:40:13.722Z,85.18
2023-02-06T13:45:03.737Z,85.18
2023-02-06T13:50:04.580Z,85.19
2023-02-06T13:55:03.467Z,85.2
2023-02-06T14:00:04.050Z,85.2
2023-02-06T14:05:08.139Z,85.23
2023-02-06T14:10:03.594Z,85.2
2023-02-06T14:15:05.500Z,85.22
2023-02-06T14:20:04.938Z,85.23
2023-02-06T14:25:03.090Z,85.22
2023-02-06T14:30:02.818Z,85.24
2023-02-06T14:35:02.975Z,85.23
2023-02-06T14:40:05.593Z,85.24
2023-02-06T14:45:07.016Z,85.24
2023-02-06T14:50:03.320Z,85.26
2023-02-06T14:55:03.945Z,85.28
2023-02-06T15:00:03.680Z,85.28
2023-02-06T15:05:03.441Z,85.27
2023-02-06T15:10:08.350Z,85.31
2023-02-06T15:15:03.273Z,85.32
2023-02-06T15:20:08.925Z,85.34
2023-02-06T15:25:03.756Z,85.34
2023-02-06T15:30:06.224Z,85.35
2023-02-06T15:35:02.958Z,85.34
2023-02-06T15:40:01.970Z,85.35
2023-02-06T15:45:01.975Z,85.34
2023-02-06T15:50:02.114Z,85.37
2023-02-06T15:55:02.147Z,85.35
2023-02-06T16:00:02.243Z,85.37
2023-02-06T16:05:02.471Z,85.4
2023-02-06T16:10:03.067Z,85.4
2023-02-06T16:15:02.199Z,85.41
2023-02-06T16:20:02.330Z,85.42
2023-02-06T16:25:02.523Z,85.43
2023-02-06T16:30:02.774Z,85.47
2023-02-06T16:35:02.889Z,85.47
2023-02-06T16:40:03.822Z,85.52
2023-02-06T16:45:03.479Z,85.53
2023-02-06T16:50:02.656Z,85.55
2023-02-06T16:55:03.067Z,85.56
2023-02-06T17:00:02.256Z,85.58
2023-02-06T17:05:02.452Z,85.58
2023-02-06T17:10:02.811Z,85.57
2023-02-06T17:15:02.884Z,85.58
2023-02-06T17:20:03.690Z,85.58
2023-02-06T17:25:02.899Z,85.6
2023-02-06T17:30:03.433Z,85.59
2023-02-06T17:35:03.022Z,85.6
2023-02-06T17:40:02.329Z,85.6
2023-02-06T17:45:02.589Z,85.61
2023-02-06T17:50:02.884Z,85.61
2023-02-06T17:55:03.090Z,85.68
2023-02-06T18:00:02.304Z,85.66
2023-02-06T18:05:02.304Z,85.65
2023-02-06T18:10:02.436Z,85.64
2023-02-06T18:15:02.494Z,85.65
2023-02-06T18:20:02.607Z,85.65
2023-02-06T18:25:02.846Z,85.66
2023-02-06T18:30:03.043Z,85.68
2023-02-06T18:35:02.181Z,85.63
2023-02-06T18:40:02.587Z,85.66
2023-02-06T18:45:04.287Z,85.69
2023-02-06T18:50:02.389Z,85.72
2023-02-06T18:55:02.612Z,85.71
2023-02-06T19:00:02.716Z,85.72
2023-02-06T19:05:03.110Z,85.74
2023-02-06T19:10:02.781Z,85.72
2023-02-06T19:15:03.118Z,85.73
2023-02-06T19:20:02.272Z,85.74
2023-02-06T19:25:02.540Z,85.74
2023-02-06T19:30:02.612Z,85.74
2023-02-06T19:35:02.895Z,85.77
2023-02-06T19:40:03.249Z,85.76
2023-02-06T19:45:02.540Z,85.76
2023-02-06T19:50:02.666Z,85.76
2023-02-06T19:55:02.923Z,85.74
2023-02-06T20:00:03.053Z,85.75
2023-02-06T20:05:02.859Z,85.76
2023-02-06T20:10:02.889Z,85.75
2023-02-06T20:15:02.914Z,85.76
2023-02-06T20:20:02.961Z,85.76
2023-02-06T20:25:02.267Z,85.76
2023-02-06T20:30:02.319Z,85.77
2023-02-06T20:35:02.491Z,85.78
2023-02-06T20:40:02.590Z,85.78
2023-02-06T20:45:02.595Z,85.79
2023-02-06T20:50:02.843Z,85.79
2023-02-06T20:55:02.894Z,85.78
2023-02-06T21:00:03.047Z,85.77
2023-02-06T21:05:02.232Z,85.75
2023-02-06T21:10:02.401Z,85.75
2023-02-06T21:15:02.445Z,85.75
2023-02-06T21:20:02.755Z,85.73
2023-02-06T21:25:02.829Z,85.74
2023-02-06T21:30:03.119Z,85.74
2023-02-06T21:35:02.108Z,85.76
2023-02-06T21:40:02.182Z,85.76
2023-02-06T21:45:02.193Z,85.76
2023-02-06T21:50:02.239Z,85.77
2023-02-06T21:55:02.256Z,85.77
2023-02-06T22:00:02.325Z,85.73
2023-02-06T22:05:15.219Z,85.72
2023-02-06T22:10:08.174Z,85.72
2023-02-06T22:15:08.115Z,85.73
2023-02-06T22:20:08.079Z,85.74
2023-02-06T22:25:08.059Z,85.71
2023-02-06T22:30:08.106Z,85.69
2023-02-06T22:35:08.120Z,85.69
2023-02-06T22:40:08.085Z,85.7
2023-02-06T22:45:08.038Z,85.7
2023-02-06T22:50:07.945Z,85.71
2023-02-06T22:55:07.894Z,85.7
2023-02-06T23:00:08.891Z,85.67
2023-02-06T23:05:08.898Z,85.7
2023-02-06T23:10:08.834Z,85.71
2023-02-06T23:15:08.830Z,85.68
2023-02-06T23:20:08.780Z,85.69
2023-02-06T23:25:08.671Z,85.69
2023-02-06T23:30:08.668Z,85.67
2023-02-06T23:35:08.608Z,85.68
2023-02-06T23:40:08.581Z,85.69
2023-02-06T23:45:08.513Z,85.68
2023-02-06T23:50:08.554Z,85.67
2023-02-06T23:55:08.472Z,85.65
